Data for 02/01/2016

Time Sea-Level Adjusted Pressure Absolute Pressure Temperature Relative Humidity Dew Point   
(mb) (inHg) (mb) (inHg) (C) (F) (%) (C) (F)
00:05 1013 29.91 842 24.86 -9.1 15.7 61 -15.3 4.5
00:10 1013 29.91 842 24.86 -9.1 15.7 62 -15 5
00:15 1013 29.91 842 24.86 -9.1 15.6 63 -15 5
00:20 1013 29.91 842 24.86 -9.2 15.5 63 -15 5
00:25 1013 29.91 842 24.86 -9.2 15.4 63 -15 5
00:30 1013 29.91 842 24.86 -9.3 15.2 64 -15 5
00:35 1013 29.91 842 24.86 -9.3 15.4 64 -14.9 5.1
00:40 1013 29.91 842 24.86 -9 15.9 62 -14.9 5.1
00:45 1013 29.91 842 24.86 -9 15.8 63 -14.8 5.4
00:50 1013 29.91 842 24.86 -9.2 15.5 65 -14.7 5.6
00:55 1013 29.91 842 24.86 -8.9 16 62 -14.8 5.3
01:00 1013 29.91 842 24.86 -9.5 14.9 66 -14.8 5.4
01:05 1013 29.91 842 24.86 -10 14 67 -15 4.9
01:10 1013 29.91 842 24.86 -10.2 13.7 67 -15.1 4.8
01:15 1013 29.91 842 24.86 -10 14 66 -15.1 4.8
01:20 1013 29.91 842 24.86 -10.1 13.9 67 -15.1 4.8
01:25 1013 29.91 842 24.86 -10.1 13.9 67 -15.1 4.8
01:30 1013 29.91 842 24.86 -10 13.9 67 -15 5
01:35 1013 29.91 842 24.86 -10 13.9 67 -15 5
01:40 1013 29.91 842 24.86 -10 14 67 -15 5
01:45 1013 29.91 842 24.86 -9.9 14.2 67 -15 5.1
01:50 1013 29.91 842 24.86 -10 14.1 67 -14.9 5.2
01:55 1013 29.91 842 24.86 -10 14 67 -15 5
02:00 1013 29.91 842 24.86 -9.9 14.2 67 -14.9 5.1
02:05 1013 29.91 842 24.86 -9.9 14.2 67 -14.9 5.1
02:10 1013 29.91 842 24.86 -9.9 14.1 67 -14.9 5.2
02:15 1013 29.91 842 24.86 -10 13.9 68 -14.8 5.3
02:20 1013 29.91 842 24.86 -10.1 13.8 69 -14.8 5.4
02:25 1013 29.91 842 24.86 -10 14 69 -14.7 5.5
02:30 1013 29.91 842 24.86 -9.7 14.5 68 -14.6 5.8
02:35 1013 29.91 842 24.86 -9.5 14.9 68 -14.4 6.1
02:40 1013 29.91 842 24.86 -9.4 15 68 -14.4 6.1
02:45 1013 29.91 842 24.86 -9.5 14.9 68 -14.4 6.1
02:50 1013 29.91 842 24.86 -9.6 14.8 68 -14.4 6.1
02:55 1013 29.91 842 24.86 -9.7 14.5 69 -14.4 6.1
03:00 1013 29.91 842 24.86 -9.9 14.3 69 -14.4 6
03:05 1013 29.91 842 24.86 -10.2 13.6 71 -14.6 5.7
03:10 1013 29.91 842 24.86 -10.6 12.8 71 -14.9 5.3
03:15 1013 29.91 842 24.86 -10.8 12.7 71 -15 5.1
03:20 1013 29.91 842 24.86 -10.7 12.7 71 -15 5.1
03:25 1013 29.91 843 24.89 -10.7 12.8 71 -15 5
03:30 1013 29.91 843 24.89 -10.8 12.6 71 -15 5
03:35 1013 29.91 843 24.89 -10.9 12.3 72 -15.1 4.9
03:40 1013 29.91 842 24.86 -10.8 12.6 71 -15 5
03:45 1013 29.91 843 24.89 -10.4 13.3 70 -14.9 5.3
03:50 1013 29.91 843 24.89 -10.2 13.6 70 -14.7 5.5
03:55 1013 29.91 842 24.86 -10 14 69 -14.6 5.8
04:00 1013 29.91 842 24.86 -9.8 14.4 69 -14.4 6.1
04:05 1013 29.91 842 24.86 -9.6 14.7 69 -14.3 6.2
04:10 1013 29.91 842 24.86 -9.6 14.7 70 -14.2 6.4
04:15 1013 29.91 842 24.86 -9.9 14.2 71 -14.3 6.3
04:20 1013 29.91 842 24.86 -10.2 13.7 71 -14.5 5.9
04:25 1013 29.91 842 24.86 -10.2 13.7 71 -14.4 6
04:30 1013 29.91 842 24.86 -10.2 13.6 72 -14.4 6.1
04:35 1013 29.91 842 24.86 -10.5 13.2 73 -14.5 6
04:40 1013 29.91 842 24.86 -10.8 12.6 74 -14.6 5.8
04:45 1013 29.91 842 24.86 -10.8 12.6 73 -14.7 5.6
04:50 1013 29.91 842 24.86 -10.7 12.7 73 -14.6 5.7
04:55 1013 29.91 842 24.86 -10.7 12.8 73 -14.7 5.6
05:00 1013 29.91 842 24.86 -10.5 13 72 -14.7 5.6
05:05 1013 29.91 842 24.86 -10.4 13.3 71 -14.6 5.7
05:10 1013 29.91 842 24.86 -10.4 13.2 72 -14.6 5.8
05:15 1013 29.91 842 24.86 -10.3 13.5 71 -14.6 5.8
05:20 1013 29.91 842 24.86 -10.3 13.5 72 -14.5 6
05:25 1013 29.91 842 24.86 -10.2 13.7 72 -14.4 6.1
05:30 1013 29.91 842 24.86 -10.1 13.9 71 -14.4 6.1
05:35 1013 29.91 842 24.86 -9.9 14.2 71 -14.2 6.4
05:40 1013 29.91 842 24.86 -9.8 14.3 71 -14.1 6.5
05:45 1013 29.91 842 24.86 -9.8 14.5 71 -14.1 6.7
05:50 1013 29.91 842 24.86 -9.7 14.6 71 -14 6.8
05:55 1013 29.91 842 24.86 -9.6 14.8 71 -14 6.9
06:00 1013 29.91 842 24.86 -9.5 14.9 71 -13.9 7
06:05 1013 29.91 842 24.86 -9.5 15 71 -13.8 7.2
06:10 1013 29.91 842 24.86 -9.5 15 71 -13.7 7.3
06:15 1013 29.91 842 24.86 -9.5 14.9 72 -13.7 7.4
06:20 1013 29.91 842 24.86 -9.5 14.8 72 -13.7 7.3
06:25 1013 29.91 842 24.86 -9.6 14.8 72 -13.7 7.4
06:30 1013 29.91 842 24.86 -9.6 14.7 72 -13.7 7.3
06:35 1013 29.91 842 24.86 -9.6 14.7 72 -13.8 7.2
06:40 1013 29.91 842 24.86 -9.5 14.9 71 -13.8 7.2
06:45 1013 29.91 842 24.86 -9.4 15.2 71 -13.8 7.2
06:50 1013 29.91 842 24.86 -9.2 15.4 70 -13.7 7.4
06:55 1013 29.91 842 24.86 -9.1 15.7 70 -13.5 7.7
07:00 1013 29.91 842 24.86 -9 15.7 71 -13.5 7.8
07:05 1013 29.91 842 24.86 -9 15.9 71 -13.4 7.9
07:10 1013 29.91 842 24.86 -9 15.8 71 -13.3 8
07:15 1013 29.91 842 24.86 -9 15.8 72 -13.2 8.2
07:20 1013 29.91 842 24.86 -9 15.7 72 -13.2 8.3
07:25 1013 29.91 843 24.89 -9 15.7 72 -13.1 8.4
07:30 1013 29.91 843 24.89 -9.1 15.7 73 -13.1 8.5
07:35 1013 29.91 843 24.89 -9.1 15.5 73 -13.1 8.5
07:40 1013 29.91 843 24.89 -9.2 15.4 74 -13.1 8.4
07:45 1013 29.91 843 24.89 -9.3 15.3 73 -13.2 8.2
07:50 1013 29.91 843 24.89 -9.3 15.2 74 -13.2 8.3
07:55 1014 29.94 843 24.89 -9.4 15.2 74 -13.1 8.4
08:00 1014 29.94 843 24.89 -9.4 15.1 74 -13.1 8.3
08:05 1014 29.94 843 24.89 -9.5 15 74 -13.2 8.2
08:10 1014 29.94 843 24.89 -9.4 15.1 73 -13.4 8
08:15 1014 29.94 843 24.89 -9.2 15.5 73 -13.2 8.3
08:20 1014 29.94 843 24.89 -9.1 15.6 72 -13.2 8.2
08:25 1014 29.94 843 24.89 -9.2 15.4 73 -13.2 8.2
08:30 1014 29.94 843 24.89 -9.2 15.5 73 -13.2 8.2
08:35 1014 29.94 843 24.89 -9 15.8 72 -13.1 8.4
08:40 1014 29.94 843 24.89 -9 15.8 73 -13 8.6
08:45 1014 29.94 843 24.89 -8.9 15.9 74 -12.8 9
08:50 1014 29.94 843 24.89 -8.9 16 74 -12.8 9
08:55 1014 29.94 843 24.89 -9.1 15.6 75 -12.7 9.1
09:00 1014 29.94 843 24.89 -9.2 15.4 75 -12.8 8.9
09:05 1014 29.94 843 24.89 -9.3 15.3 76 -12.8 9
09:10 1014 29.94 843 24.89 -9.2 15.5 75 -12.8 8.9
09:15 1014 29.94 843 24.89 -8.8 16.1 75 -12.5 9.6
09:20 1014 29.94 843 24.89 -8.6 16.4 74 -12.5 9.5
09:25 1014 29.94 843 24.89 -8.7 16.4 74 -12.5 9.5
09:30 1014 29.94 843 24.89 -8.7 16.3 75 -12.5 9.6
09:35 1014 29.94 843 24.89 -8.7 16.4 74 -12.5 9.4
09:40 1014 29.94 843 24.89 -8.8 16.3 74 -12.6 9.3
09:45 1014 29.94 843 24.89 -8.8 16.1 73 -12.8 9
09:50 1014 29.94 843 24.89 -8.9 16 74 -12.8 9
09:55 1014 29.94 843 24.89 -8.8 16.2 74 -12.7 9.2
10:00 1014 29.94 843 24.89 -8.6 16.4 73 -12.6 9.2
10:05 1014 29.94 843 24.89 -8.4 16.8 72 -12.6 9.4
10:10 1014 29.94 843 24.89 -8.1 17.3 72 -12.3 9.8
10:15 1014 29.94 843 24.89 -8 17.7 71 -12.3 9.9
10:20 1014 29.94 844 24.92 -7.8 17.9 71 -12.2 10
10:25 1014 29.94 844 24.92 -7.7 18.2 71 -12.1 10.2
10:30 1014 29.94 844 24.92 -7.7 18.2 70 -12.2 10
10:35 1014 29.94 844 24.92 -7.7 18.2 69 -12.3 9.8
10:40 1014 29.94 844 24.92 -7.5 18.5 69 -12.3 9.9
10:45 1015 29.97 844 24.92 -7.3 18.8 68 -12.2 10.1
10:50 1015 29.97 844 24.92 -7.2 19.1 67 -12.3 9.9
10:55 1015 29.97 844 24.92 -7.2 19 67 -12.3 9.8
11:00 1015 29.97 844 24.92 -7.2 19.1 66 -12.4 9.7
11:05 1015 29.97 844 24.92 -7.1 19.3 66 -12.4 9.6
11:10 1015 29.97 844 24.92 -6.9 19.6 65 -12.3 9.8
11:15 1015 29.97 844 24.92 -6.8 19.8 65 -12.2 10
11:20 1015 29.97 844 24.92 -6.7 20 65 -12.2 10.1
11:25 1015 29.97 844 24.92 -6.4 20.5 64 -12.1 10.2
11:30 1015 29.97 844 24.92 -6.3 20.7 65 -11.9 10.6
11:35 1015 29.97 844 24.92 -6 21.2 64 -11.7 10.9
11:40 1015 29.97 844 24.92 -5.9 21.4 63 -11.9 10.6
11:45 1015 29.97 844 24.92 -5.9 21.4 64 -11.6 11.2
11:50 1015 29.97 844 24.92 -5.7 21.7 63 -11.6 11.1
11:55 1015 29.97 844 24.92 -5.2 22.7 62 -11.4 11.4
12:00 1015 29.97 844 24.92 -5 22.9 63 -11.1 12.1
12:05 1015 29.97 844 24.92 -5.1 22.8 62 -11.3 11.6
12:10 1015 29.97 844 24.92 -4.8 23.3 61 -11.2 11.9
12:15 1015 29.97 844 24.92 -4.6 23.8 60 -11.1 12
12:20 1015 29.97 844 24.92 -4.4 24.1 60 -11.1 12
12:25 1015 29.97 844 24.92 -4.4 24.1 59 -11.3 11.6
12:30 1015 29.97 844 24.92 -4.2 24.4 59 -11.2 11.8
12:35 1015 29.97 844 24.92 -4.3 24.3 59 -11.1 12
12:40 1015 29.97 844 24.92 -4.2 24.4 58 -11.3 11.6
12:45 1015 29.97 844 24.92 -4.2 24.4 59 -11.1 12
12:50 1015 29.97 844 24.92 -4.5 23.9 59 -11.4 11.5
12:55 1015 29.97 844 24.92 -4.1 24.7 56 -11.6 11.2
13:00 1015 29.97 844 24.92 -4.1 24.6 59 -11 12.3
13:05 1015 29.97 844 24.92 -4.3 24.3 58 -11.4 11.4
13:10 1015 29.97 844 24.92 -4.5 24 59 -11.3 11.7
13:15 1015 29.97 844 24.92 -4.2 24.4 59 -11.2 11.8
13:20 1015 29.97 844 24.92 -4.1 24.6 58 -11.1 12
13:25 1015 29.97 844 24.92 -4.1 24.5 58 -11.2 11.8
13:30 1015 29.97 844 24.92 -4.6 23.7 60 -11.2 11.9
13:35 1015 29.97 844 24.92 -4.9 23.2 61 -11.3 11.6
13:40 1015 29.97 844 24.92 -4.4 24 59 -11.2 11.8
13:45 1015 29.97 844 24.92 -4 24.8 58 -11.2 11.9
13:50 1015 29.97 844 24.92 -4 24.8 60 -10.6 13
13:55 1015 29.97 844 24.92 -3.9 25 59 -10.8 12.6
14:00 1014 29.94 844 24.92 -3.8 25.1 59 -10.7 12.7
14:05 1014 29.94 844 24.92 -4.3 24.3 61 -10.8 12.6
14:10 1014 29.94 844 24.92 -4 24.7 60 -10.7 12.7
14:15 1014 29.94 844 24.92 -4.3 24.2 62 -10.6 12.9
14:20 1014 29.94 844 24.92 -4.5 23.9 61 -10.8 12.5
14:25 1014 29.94 844 24.92 -4.1 24.6 59 -10.9 12.3
14:30 1014 29.94 844 24.92 -4.2 24.5 60 -10.8 12.5
14:35 1014 29.94 844 24.92 -3.9 24.9 60 -10.6 12.9
14:40 1014 29.94 844 24.92 -3.7 25.3 59 -10.6 12.9
14:45 1014 29.94 844 24.92 -3.5 25.8 58 -10.6 12.9
14:50 1014 29.94 844 24.92 -4.1 24.6 61 -10.6 13
14:55 1014 29.94 844 24.92 -3.8 25.2 58 -10.9 12.4
15:00 1014 29.94 843 24.89 -3.6 25.5 59 -10.5 13.1
15:05 1014 29.94 843 24.89 -3.8 25.2 59 -10.7 12.7
15:10 1014 29.94 843 24.89 -3.8 25.1 59 -10.8 12.6
15:15 1014 29.94 843 24.89 -2.6 27.3 54 -10.7 12.8
15:20 1014 29.94 843 24.89 -2.2 28.1 55 -10.1 13.8
15:25 1014 29.94 843 24.89 -2.2 28 54 -10.4 13.3
15:30 1014 29.94 843 24.89 -1.9 28.6 51 -10.7 12.8
15:35 1014 29.94 843 24.89 -1.9 28.6 54 -9.9 14.1
15:40 1014 29.94 843 24.89 -2.2 28 55 -10.1 13.7
15:45 1014 29.94 843 24.89 -2.2 28.1 54 -10.2 13.6
15:50 1014 29.94 843 24.89 -2.7 27.2 57 -10.2 13.7
15:55 1014 29.94 843 24.89 -2.8 27 57 -10.3 13.5
16:00 1014 29.94 843 24.89 -2.2 28 55 -10.2 13.7
16:05 1014 29.94 843 24.89 -1.7 28.9 53 -10.1 13.8
16:10 1014 29.94 843 24.89 -1.9 28.6 55 -9.8 14.4
16:15 1014 29.94 843 24.89 -2.6 27.3 58 -9.8 14.4
16:20 1014 29.94 843 24.89 -3.1 26.4 58 -10.3 13.5
16:25 1014 29.94 843 24.89 -3.3 26.1 59 -10.3 13.5
16:30 1014 29.94 844 24.92 -3.2 26.2 58 -10.3 13.5
16:35 1014 29.94 844 24.92 -3.3 26 58 -10.4 13.3
16:40 1014 29.94 844 24.92 -4 24.7 62 -10.3 13.5
16:45 1014 29.94 844 24.92 -4.2 24.4 63 -10.2 13.6
16:50 1015 29.97 844 24.92 -4 24.9 62 -10.2 13.7
16:55 1015 29.97 844 24.92 -3.9 25.1 61 -10.3 13.5
17:00 1015 29.97 844 24.92 -4 24.9 62 -10.2 13.7
17:05 1015 29.97 844 24.92 -3.8 25.2 61 -10.2 13.6
17:10 1015 29.97 844 24.92 -3.5 25.7 60 -10.2 13.7
17:15 1015 29.97 844 24.92 -3.5 25.8 60 -10.1 13.9
17:20 1015 29.97 844 24.92 -3.1 26.4 59 -10.1 13.8
17:25 1015 29.97 844 24.92 -2.6 27.3 56 -10.1 13.7
17:30 1015 29.97 844 24.92 -2.5 27.6 57 -10 14.1
17:35 1015 29.97 844 24.92 -2.4 27.7 58 -9.7 14.6
17:40 1015 29.97 844 24.92 -2.4 27.7 56 -9.9 14.2
17:45 1015 29.97 844 24.92 -2.3 27.8 55 -10.3 13.5
17:50 1015 29.97 844 24.92 -2.4 27.6 55 -10.2 13.6
17:55 1015 29.97 844 24.92 -2.8 27 56 -10.3 13.5
18:00 1015 29.97 844 24.92 -3 26.6 58 -10.2 13.7
18:05 1015 29.97 845 24.95 -2.9 26.7 57 -10.3 13.5
18:10 1015 29.97 845 24.95 -3.1 26.5 57 -10.3 13.4
18:15 1015 29.97 845 24.95 -3.3 26.1 58 -10.4 13.2
18:20 1015 29.97 845 24.95 -3.8 25.2 60 -10.4 13.3
18:25 1015 29.97 845 24.95 -4.1 24.7 62 -10.4 13.3
18:30 1015 29.97 845 24.95 -4.4 24.2 63 -10.5 13.2
18:35 1015 29.97 845 24.95 -4.6 23.8 64 -10.4 13.3
18:40 1016 30 845 24.95 -4.8 23.4 66 -10.2 13.7
18:45 1016 30 845 24.95 -5.1 22.8 67 -10.4 13.3
18:50 1016 30 845 24.95 -5.3 22.5 67 -10.6 13
18:55 1016 30 845 24.95 -5.2 22.6 66 -10.6 12.9
19:00 1016 30 845 24.95 -5.2 22.6 67 -10.4 13.3
19:05 1016 30 845 24.95 -5.6 21.9 69 -10.3 13.4
19:10 1016 30 845 24.95 -5.8 21.5 71 -10.4 13.4
19:15 1016 30 845 24.95 -6.1 21 72 -10.4 13.3
19:20 1016 30 845 24.95 -6.1 21 72 -10.4 13.3
19:25 1016 30 845 24.95 -6.2 20.8 72 -10.5 13.1
19:30 1016 30 845 24.95 -6.4 20.4 73 -10.6 13
19:35 1016 30 845 24.95 -6.5 20.3 73 -10.6 12.9
19:40 1016 30 845 24.95 -6.6 20.1 73 -10.7 12.7
19:45 1016 30 845 24.95 -6.7 19.9 73 -10.8 12.6
19:50 1016 30 845 24.95 -6.8 19.7 73 -10.8 12.5
19:55 1016 30 845 24.95 -7 19.3 73 -11.2 11.9
20:00 1016 30 845 24.95 -7.5 18.6 73 -11.4 11.4
20:05 1016 30 845 24.95 -7.7 18.1 73 -11.7 11
20:10 1016 30 845 24.95 -7.8 17.9 74 -11.7 10.9
20:15 1016 30 845 24.95 -8.1 17.5 74 -12 10.5
20:20 1016 30 845 24.95 -8.1 17.5 73 -12.1 10.3
20:25 1016 30 845 24.95 -8.3 17.1 74 -12.2 10.1
20:30 1016 30 845 24.95 -8.5 16.6 74 -12.4 9.8
20:35 1016 30 845 24.95 -8.6 16.5 75 -12.3 9.8
20:40 1016 30 845 24.95 -8.6 16.5 74 -12.4 9.6
20:45 1016 30 845 24.95 -8.9 15.9 74 -12.7 9.2
20:50 1016 30 845 24.95 -9.3 15.4 77 -12.6 9.2
20:55 1016 30 845 24.95 -9.4 15.1 77 -12.7 9.2
21:00 1016 30 845 24.95 -9.5 15 77 -12.8 9
21:05 1016 30 845 24.95 -9.6 14.8 78 -12.8 9
21:10 1016 30 845 24.95 -9.5 15 78 -12.6 9.3
21:15 1016 30 845 24.95 -9.5 15 78 -12.6 9.4
21:20 1016 30 845 24.95 -9.5 14.9 78 -12.6 9.4
21:25 1016 30 845 24.95 -9.3 15.2 78 -12.6 9.4
21:30 1016 30 845 24.95 -9.2 15.5 75 -12.9 8.9
21:35 1016 30 845 24.95 -9.2 15.4 73 -13.2 8.3
21:40 1016 30 845 24.95 -9.3 15.3 73 -13.3 8.1
21:45 1016 30 845 24.95 -9.4 15.1 74 -13.1 8.3
21:50 1016 30 845 24.95 -9.5 14.9 76 -13 8.5
21:55 1016 30 845 24.95 -9.5 14.9 75 -13.1 8.5
22:00 1016 30 846 24.98 -9.4 15 76 -13 8.6
22:05 1016 30 846 24.98 -9.5 15 74 -13.3 8
22:10 1016 30 846 24.98 -9.5 14.9 74 -13.2 8.2
22:15 1016 30 846 24.98 -9.4 15.1 74 -13.2 8.2
22:20 1016 30 846 24.98 -9.4 15.1 73 -13.3 8
22:25 1016 30 846 24.98 -9.3 15.2 73 -13.4 8
22:30 1016 30 846 24.98 -9.4 15.2 72 -13.5 7.7
22:35 1016 30 846 24.98 -9.6 14.7 72 -13.7 7.4
22:40 1016 30 846 24.98 -9.9 14.2 73 -13.8 7.1
22:45 1016 30 846 24.98 -10 14.1 74 -13.7 7.3
22:50 1016 30 846 24.98 -10 13.9 75 -13.6 7.5
22:55 1017 30.03 846 24.98 -10.3 13.6 76 -13.6 7.4
23:00 1017 30.03 846 24.98 -10.3 13.4 78 -13.5 7.6
23:05 1017 30.03 846 24.98 -10.3 13.4 78 -13.5 7.7
23:10 1017 30.03 846 24.98 -10.3 13.4 77 -13.6 7.5
23:15 1017 30.03 846 24.98 -10.4 13.2 78 -13.6 7.5
23:20 1017 30.03 846 24.98 -10.5 13.1 77 -13.8 7.2
23:25 1017 30.03 846 24.98 -10.6 13 76 -14 6.8
23:30 1017 30.03 846 24.98 -10.6 12.9 77 -14 6.8
23:35 1017 30.03 846 24.98 -10.7 12.7 77 -14.1 6.7
23:40 1017 30.03 846 24.98 -10.9 12.5 77 -14.2 6.4
23:45 1017 30.03 846 24.98 -10.9 12.5 77 -14.1 6.6
23:50 1017 30.03 846 24.98 -10.9 12.4 77 -14.2 6.5
23:55 1017 30.03 846 24.98 -11 12.3 77 -14.2 6.5
24:00 1017 30.03 846 24.98 -10.9 12.4 77 -14.1 6.6